Decoded Metar for KHHR (HAWTHORNE in CA, USA) (IATA:HHR) | Meteo·Mobile Aviation Weather
aviador You're here:

KHHR Decoded Metar

HAWTHORNE in CA, USA
Report Time2019-03-19 18:53:00
UTC Time2019-03-19 19:27:36
Flight Rules vfr VFR
WindVRB at 05 kt
Visibility9999 m
Phenomena:N/A
Clouds:N/A
Expected CloudBase > 2,800 ft AGL from Temp-Dew spread
CeilingNone
Temp17°C (ISA +2)
Dew Point10°C (64% RH)
AAT15.3°C
QNH1016 hPa
Density Alt374 ft
Elevation59 ft
Report Wrong Elevation
Raw Report
KHHR 191853Z VRB05KT 10SM CLR 17/10 A2999 RMK AO2 SLP155
T01670100=

Extra information for KHHR:More info

Metar Taf Metar & Taf Last 4 Metars F.Rules Stats Wind Profile Meteogram Temp Stats Airport Information Weather charts Add Link Nearby VenuesMetar ALERT Operation Metar Decoded Social comments

AIRNAV info for KHHR